Time;durP1;ratioP1;P1;durP2;ratioP2;P2;SDS_P1;SDS_P2;PMS_P1;PMS_P2;Temp;Humidity;BMP_temperature;BMP_pressure;BME280_temperature;BME280_humidity;BME280_pressure;Samples;Min_cycle;Max_cycle;Signal;HPM_P1;HPM_P2
2022/06/06 00:00:08;;;;;;;2.65;1.00;;;16.10;99.90;;;;;;5242204;28;20024;-77
2022/06/06 00:02:44;;;;;;;1.05;0.98;;;16.20;99.90;;;;;;5250097;28;20029;-75
2022/06/06 00:05:21;;;;;;;0.65;0.65;;;16.10;99.90;;;;;;5239034;28;20042;-74
2022/06/06 00:07:54;;;;;;;1.00;1.00;;;16.10;99.90;;;;;;5232104;28;20028;-76
2022/06/06 00:10:33;;;;;;;1.30;1.20;;;16.10;99.90;;;;;;5250126;28;20024;-76
2022/06/06 00:13:06;;;;;;;1.98;1.00;;;16.10;99.90;;;;;;5212654;28;20541;-78
2022/06/06 00:15:40;;;;;;;1.00;0.98;;;16.00;99.90;;;;;;5220206;28;20033;-78
2022/06/06 00:18:14;;;;;;;1.55;1.30;;;16.00;99.90;;;;;;5211238;28;20027;-76
2022/06/06 00:20:47;;;;;;;1.50;1.42;;;15.90;99.90;;;;;;5228079;28;20056;-78
2022/06/06 00:23:21;;;;;;;2.05;1.80;;;15.90;99.90;;;;;;5229449;28;20234;-77
2022/06/06 00:25:54;;;;;;;2.00;1.47;;;15.90;99.90;;;;;;5211906;28;20025;-78
2022/06/06 00:28:28;;;;;;;1.25;1.13;;;15.90;99.90;;;;;;5232113;28;20800;-79
2022/06/06 00:34:48;;;;;;;2.38;1.30;;;15.90;99.90;;;;;;5232495;28;20035;-75
2022/06/06 00:36:50;;;;;;;1.00;1.00;;;15.90;99.90;;;;;;5252195;28;20468;-79
2022/06/06 00:39:21;;;;;;;1.40;1.30;;;15.90;99.90;;;;;;5225393;28;20028;-77
2022/06/06 00:41:55;;;;;;;2.78;1.00;;;15.90;99.90;;;;;;5247977;28;20029;-78
2022/06/06 00:44:33;;;;;;;5.20;0.98;;;15.90;99.90;;;;;;5237010;28;20037;-79
2022/06/06 00:47:20;;;;;;;2.15;1.40;;;15.90;99.90;;;;;;5232714;28;20035;-75
2022/06/06 00:49:55;;;;;;;4.60;1.70;;;16.00;99.90;;;;;;5231659;28;20025;-77
2022/06/06 00:52:32;;;;;;;3.80;1.60;;;16.00;99.90;;;;;;5212410;28;20024;-77
2022/06/06 00:55:18;;;;;;;2.10;1.15;;;16.00;99.90;;;;;;5246161;28;20477;-78
2022/06/06 00:57:56;;;;;;;1.58;1.15;;;16.00;99.90;;;;;;5253277;28;20028;-77
2022/06/06 01:00:28;;;;;;;1.70;1.10;;;16.10;99.90;;;;;;5270056;28;20322;-76
2022/06/06 01:03:03;;;;;;;1.00;1.00;;;16.00;99.90;;;;;;5274464;28;20032;-78
2022/06/06 01:05:39;;;;;;;2.35;2.15;;;16.00;99.90;;;;;;5239042;28;20041;-76
2022/06/06 01:08:13;;;;;;;1.98;1.52;;;16.00;99.90;;;;;;5232109;28;20559;-81
2022/06/06 01:10:47;;;;;;;1.40;1.30;;;16.00;99.90;;;;;;5249423;28;20044;-79
2022/06/06 01:13:24;;;;;;;1.33;1.23;;;16.10;99.90;;;;;;5247295;28;20028;-78
2022/06/06 01:16:09;;;;;;;0.93;0.90;;;16.10;99.90;;;;;;5253395;28;20030;-77
2022/06/06 01:18:58;;;;;;;0.95;0.95;;;16.10;99.90;;;;;;5253206;28;20028;-77
2022/06/06 01:22:13;;;;;;;2.30;1.20;;;16.10;99.90;;;;;;5251482;28;20033;-78
2022/06/06 01:25:15;;;;;;;3.03;1.30;;;16.10;99.90;;;;;;5234388;28;20032;-76
2022/06/06 01:28:20;;;;;;;2.00;1.15;;;16.10;99.90;;;;;;5253527;28;20433;-77
2022/06/06 01:31:00;;;;;;;1.10;1.00;;;16.10;99.90;;;;;;5228596;28;20037;-78
2022/06/06 01:33:54;;;;;;;2.60;1.80;;;16.00;99.90;;;;;;5213571;28;20025;-77
2022/06/06 01:36:29;;;;;;;3.80;1.75;;;16.00;99.90;;;;;;5231155;28;20037;-78
2022/06/06 01:39:05;;;;;;;1.23;0.93;;;16.00;99.90;;;;;;5226387;28;20386;-80
2022/06/06 01:42:02;;;;;;;1.42;1.00;;;16.00;99.90;;;;;;5204529;28;20029;-78
2022/06/06 01:44:59;;;;;;;1.00;0.90;;;16.00;99.90;;;;;;5240275;28;20059;-76
2022/06/06 01:48:01;;;;;;;2.05;1.40;;;16.00;99.90;;;;;;5266530;28;20062;-77
2022/06/06 01:50:37;;;;;;;1.52;1.10;;;16.00;99.90;;;;;;5256733;28;20032;-78
2022/06/06 01:53:14;;;;;;;1.13;1.02;;;16.00;99.90;;;;;;5230111;28;20033;-79
2022/06/06 01:55:52;;;;;;;1.08;1.05;;;16.10;99.90;;;;;;5233762;28;20046;-78
2022/06/06 01:58:27;;;;;;;1.17;1.08;;;16.00;99.90;;;;;;5233587;28;20534;-76
2022/06/06 02:01:02;;;;;;;1.23;1.13;;;15.90;99.90;;;;;;5233761;28;20038;-79
2022/06/06 02:03:34;;;;;;;0.90;0.90;;;15.90;99.90;;;;;;5212316;28;20111;-77
2022/06/06 02:06:17;;;;;;;1.45;1.10;;;15.90;99.90;;;;;;5198968;28;20076;-79
2022/06/06 02:08:51;;;;;;;1.38;1.27;;;16.00;99.90;;;;;;5217448;28;20025;-78
2022/06/06 02:11:23;;;;;;;2.15;1.30;;;16.00;99.90;;;;;;5214117;28;20021;-78
2022/06/06 02:13:54;;;;;;;1.50;1.20;;;16.10;99.90;;;;;;5212846;28;20342;-80
2022/06/06 02:16:25;;;;;;;1.58;1.25;;;16.10;99.90;;;;;;5213098;28;20043;-80
2022/06/06 02:18:57;;;;;;;1.55;1.33;;;16.00;99.90;;;;;;5230992;28;20043;-79
2022/06/06 02:21:31;;;;;;;1.67;0.95;;;16.00;99.90;;;;;;5249826;28;20038;-80
2022/06/06 02:24:12;;;;;;;2.75;1.17;;;16.10;99.90;;;;;;5270930;28;20030;-80
2022/06/06 02:26:43;;;;;;;1.20;1.10;;;16.10;99.90;;;;;;5272557;28;20020;-76
2022/06/06 02:29:20;;;;;;;1.75;1.45;;;16.00;99.90;;;;;;5272277;28;20203;-77
2022/06/06 02:31:51;;;;;;;1.98;1.77;;;15.90;99.90;;;;;;5271819;28;20370;-80
2022/06/06 02:34:23;;;;;;;2.75;1.40;;;15.80;99.90;;;;;;5256105;28;20025;-77
2022/06/06 02:36:57;;;;;;;1.27;1.13;;;15.80;99.90;;;;;;5230696;28;20036;-75
2022/06/06 02:39:28;;;;;;;1.50;1.40;;;15.80;99.90;;;;;;5229650;28;20046;-77
2022/06/06 02:42:02;;;;;;;1.17;1.00;;;15.80;99.90;;;;;;5251268;28;20032;-77
2022/06/06 02:44:33;;;;;;;1.20;1.10;;;15.80;99.90;;;;;;5250858;28;20421;-79
2022/06/06 02:47:08;;;;;;;1.55;1.45;;;15.80;99.90;;;;;;5251275;28;20327;-76
2022/06/06 02:49:40;;;;;;;1.15;1.08;;;15.80;99.90;;;;;;5231993;28;20044;-77
2022/06/06 02:52:12;;;;;;;1.80;1.35;;;15.70;99.90;;;;;;5249455;28;20031;-78
2022/06/06 02:54:43;;;;;;;1.92;1.50;;;15.80;99.90;;;;;;5242774;28;20032;-78
2022/06/06 02:57:15;;;;;;;1.30;1.20;;;15.70;99.90;;;;;;5223477;28;20036;-77
2022/06/06 02:59:49;;;;;;;2.30;1.63;;;15.80;99.90;;;;;;5244487;28;20213;-78
2022/06/06 03:02:22;;;;;;;3.03;1.17;;;15.80;99.90;;;;;;5250653;28;20351;-79
2022/06/06 03:04:56;;;;;;;1.40;1.30;;;15.70;99.90;;;;;;5240320;28;21009;-78
2022/06/06 03:08:06;;;;;;;0.75;0.70;;;15.60;99.90;;;;;;5215130;28;20042;-79
2022/06/06 03:10:52;;;;;;;1.10;1.00;;;15.60;99.90;;;;;;5232972;28;20034;-77
2022/06/06 03:13:50;;;;;;;1.30;1.20;;;15.60;99.90;;;;;;5249191;28;20036;-77
2022/06/06 03:22:53;;;;;;;1.50;1.40;;;15.90;99.90;;;;;;5240203;28;20399;-82
2022/06/06 03:25:37;;;;;;;1.60;1.35;;;15.90;99.90;;;;;;5231945;28;20024;-78
2022/06/06 03:28:40;;;;;;;1.55;1.27;;;15.90;99.90;;;;;;5229129;28;20038;-78
2022/06/06 03:31:46;;;;;;;1.23;1.13;;;15.80;99.90;;;;;;5257836;28;20016;-80
2022/06/06 03:34:51;;;;;;;1.20;1.15;;;15.80;99.90;;;;;;5271514;28;20012;-78
2022/06/06 03:37:40;;;;;;;4.07;1.40;;;16.00;99.90;;;;;;5217573;28;20040;-79
2022/06/06 03:40:31;;;;;;;1.38;0.90;;;16.30;99.90;;;;;;5237561;28;20029;-77
2022/06/06 03:43:30;;;;;;;1.30;1.20;;;16.30;99.90;;;;;;5269364;28;20245;-79
2022/06/06 03:46:13;;;;;;;1.45;1.35;;;16.40;99.90;;;;;;5270951;28;20030;-77
2022/06/06 03:49:08;;;;;;;2.53;1.48;;;16.40;99.90;;;;;;5253227;28;20020;-77
2022/06/06 03:52:07;;;;;;;1.15;1.15;;;16.50;99.90;;;;;;5270586;28;20217;-79
2022/06/06 03:54:55;;;;;;;2.40;1.45;;;16.70;99.90;;;;;;5231276;28;20034;-77
2022/06/06 03:57:31;;;;;;;1.75;0.98;;;16.80;99.90;;;;;;5229261;28;20464;-77
2022/06/06 04:00:15;;;;;;;1.35;1.20;;;16.80;99.90;;;;;;5253179;28;20367;-76
2022/06/06 04:02:48;;;;;;;1.57;1.47;;;16.80;99.90;;;;;;5266863;28;20030;-78
2022/06/06 04:05:24;;;;;;;2.13;1.23;;;16.90;99.90;;;;;;5212451;28;20333;-78
2022/06/06 04:07:58;;;;;;;0.90;0.90;;;16.90;99.90;;;;;;5238401;28;20058;-76
2022/06/06 04:10:50;;;;;;;2.87;1.47;;;16.90;99.90;;;;;;5235579;28;20039;-76
2022/06/06 04:13:52;;;;;;;2.15;1.35;;;16.90;99.90;;;;;;5234782;28;20616;-77
2022/06/06 04:16:50;;;;;;;2.88;1.02;;;17.00;99.90;;;;;;5215895;28;20034;-78
2022/06/06 04:19:39;;;;;;;1.38;1.25;;;17.10;99.90;;;;;;5236415;28;20020;-78
2022/06/06 04:22:38;;;;;;;2.38;1.20;;;17.30;99.90;;;;;;5271391;28;20553;-76
2022/06/06 04:25:15;;;;;;;2.78;0.95;;;17.40;99.90;;;;;;5256140;28;20044;-77
2022/06/06 04:28:09;;;;;;;1.58;1.23;;;17.40;99.90;;;;;;5248042;28;20075;-78
2022/06/06 04:31:35;;;;;;;1.48;1.25;;;17.40;99.90;;;;;;5248663;28;20383;-77
2022/06/06 04:34:09;;;;;;;1.33;1.20;;;17.50;99.90;;;;;;5140812;28;20035;-77
2022/06/06 04:37:06;;;;;;;1.17;1.00;;;17.50;99.90;;;;;;5129851;28;20484;-77
2022/06/06 04:39:47;;;;;;;1.23;1.10;;;17.50;99.90;;;;;;5131064;28;20027;-77
2022/06/06 04:42:46;;;;;;;1.10;1.10;;;17.50;99.90;;;;;;5147273;28;20479;-78
2022/06/06 04:45:34;;;;;;;3.33;1.27;;;17.50;99.90;;;;;;5126419;29;20053;-77
2022/06/06 04:48:08;;;;;;;1.38;1.27;;;17.40;99.90;;;;;;5126980;29;20034;-75
2022/06/06 04:50:43;;;;;;;1.55;1.45;;;17.30;99.90;;;;;;5138174;28;20445;-77
2022/06/06 04:53:22;;;;;;;1.33;1.23;;;17.40;99.90;;;;;;5146686;28;20575;-78
2022/06/06 04:56:01;;;;;;;1.80;1.30;;;17.40;99.90;;;;;;5145786;28;20034;-75
2022/06/06 04:58:38;;;;;;;1.52;1.42;;;17.60;99.90;;;;;;5145572;28;20019;-76
2022/06/06 05:01:12;;;;;;;1.63;1.23;;;17.70;99.90;;;;;;5145451;28;20544;-78
2022/06/06 05:03:48;;;;;;;1.23;1.08;;;17.80;99.90;;;;;;5130532;28;20046;-76
2022/06/06 05:06:41;;;;;;;1.45;1.30;;;17.80;99.90;;;;;;5120572;28;20047;-76
2022/06/06 05:09:12;;;;;;;1.80;1.60;;;17.80;99.90;;;;;;5191706;28;20031;-77
2022/06/06 05:12:04;;;;;;;1.65;1.30;;;17.80;99.90;;;;;;5233443;28;20029;-77
2022/06/06 05:14:54;;;;;;;1.15;1.15;;;17.80;99.90;;;;;;5247625;28;20028;-76
2022/06/06 05:17:47;;;;;;;3.80;1.42;;;17.80;99.90;;;;;;5233104;28;20502;-77
2022/06/06 05:20:55;;;;;;;1.15;1.05;;;17.80;99.90;;;;;;5233012;28;20032;-78
2022/06/06 05:23:53;;;;;;;1.55;1.45;;;17.80;99.90;;;;;;5212049;28;20033;-74
2022/06/06 05:26:30;;;;;;;2.13;1.40;;;17.80;99.90;;;;;;5211603;28;20039;-77
2022/06/06 05:29:07;;;;;;;1.60;1.50;;;18.00;99.90;;;;;;5243296;28;20028;-78
2022/06/06 05:32:08;;;;;;;2.05;1.88;;;18.10;99.90;;;;;;5249480;28;20036;-75
2022/06/06 05:35:06;;;;;;;1.67;1.35;;;18.10;99.90;;;;;;5232933;28;20029;-79
2022/06/06 05:38:00;;;;;;;1.33;1.23;;;18.10;99.90;;;;;;5250013;28;20505;-78
2022/06/06 05:40:47;;;;;;;1.30;1.20;;;18.10;99.90;;;;;;5230521;28;20033;-76
2022/06/06 05:43:45;;;;;;;1.77;1.50;;;18.10;99.90;;;;;;5252258;28;20036;-78
2022/06/06 05:46:21;;;;;;;1.30;1.20;;;18.10;99.90;;;;;;5239820;28;20043;-76
2022/06/06 05:49:19;;;;;;;2.08;1.27;;;18.10;99.90;;;;;;5249283;28;20028;-74
2022/06/06 05:51:56;;;;;;;1.55;1.45;;;18.10;99.90;;;;;;5247162;28;20039;-75
2022/06/06 05:54:39;;;;;;;1.38;1.27;;;18.20;99.90;;;;;;5228473;28;20029;-76
2022/06/06 05:57:38;;;;;;;3.42;1.17;;;18.20;99.90;;;;;;5209902;28;20036;-78
2022/06/06 06:00:19;;;;;;;1.27;1.17;;;18.30;99.90;;;;;;5241353;28;20258;-76
2022/06/06 06:03:06;;;;;;;1.40;1.30;;;18.20;99.90;;;;;;5248067;28;20348;-77
2022/06/06 06:06:04;;;;;;;2.08;1.05;;;18.20;99.90;;;;;;5238080;28;20055;-76
2022/06/06 06:09:09;;;;;;;1.33;1.10;;;18.20;99.90;;;;;;5248853;28;20051;-75
2022/06/06 06:11:48;;;;;;;1.67;1.17;;;18.30;99.90;;;;;;5231239;28;20024;-76
2022/06/06 06:14:43;;;;;;;1.75;1.23;;;18.40;99.90;;;;;;5214356;28;20038;-74
2022/06/06 06:17:19;;;;;;;1.08;0.98;;;18.50;99.90;;;;;;5236552;28;20440;-79
2022/06/06 06:20:04;;;;;;;1.52;1.27;;;18.60;99.90;;;;;;5269913;28;20020;-77
2022/06/06 06:22:46;;;;;;;1.20;1.10;;;18.60;99.90;;;;;;5269531;28;20032;-78
2022/06/06 06:25:23;;;;;;;1.30;1.20;;;18.70;99.90;;;;;;5249835;28;20039;-76
2022/06/06 06:28:02;;;;;;;1.38;1.27;;;18.60;99.90;;;;;;5246696;28;20034;-77
2022/06/06 06:30:52;;;;;;;1.10;1.00;;;18.80;99.90;;;;;;5241510;28;20033;-77
2022/06/06 06:33:27;;;;;;;1.30;1.20;;;19.10;99.90;;;;;;5219974;28;20039;-75
2022/06/06 06:36:06;;;;;;;1.20;1.10;;;19.20;99.90;;;;;;5229040;28;20044;-76
2022/06/06 06:38:53;;;;;;;1.50;1.40;;;19.40;99.90;;;;;;5228008;28;20038;-76
2022/06/06 06:41:51;;;;;;;1.48;1.35;;;19.60;99.90;;;;;;5248287;28;20023;-75
2022/06/06 06:44:34;;;;;;;1.10;1.00;;;19.90;99.90;;;;;;5248241;28;20037;-77
2022/06/06 06:47:20;;;;;;;1.30;1.20;;;20.00;99.90;;;;;;5230669;28;20346;-77
2022/06/06 06:50:18;;;;;;;2.35;1.67;;;20.30;99.90;;;;;;5230516;28;20040;-76
2022/06/06 06:52:57;;;;;;;1.38;1.27;;;20.60;99.90;;;;;;5236597;28;20031;-77
2022/06/06 06:56:09;;;;;;;1.20;1.10;;;20.90;99.90;;;;;;5265502;28;20035;-75
2022/06/06 06:58:57;;;;;;;2.67;1.42;;;20.60;99.90;;;;;;5238221;28;20022;-74
2022/06/06 07:11:12;;;;;;;1.67;0.85;;;21.10;99.90;;;;;;5248095;28;20034;-80
2022/06/06 07:13:59;;;;;;;1.20;1.00;;;21.10;99.90;;;;;;5230469;28;20024;-77
2022/06/06 07:16:43;;;;;;;2.53;1.60;;;21.00;99.90;;;;;;5225657;28;20043;-76
2022/06/06 07:19:48;;;;;;;1.25;1.15;;;20.80;99.90;;;;;;5226729;28;20021;-76
2022/06/06 07:22:20;;;;;;;0.90;0.70;;;20.60;99.90;;;;;;5235529;28;20483;-76
2022/06/06 07:24:57;;;;;;;2.58;0.80;;;20.70;99.90;;;;;;5247584;28;20044;-76
2022/06/06 07:27:31;;;;;;;1.33;1.10;;;20.70;99.90;;;;;;5247111;28;20042;-79
2022/06/06 07:30:03;;;;;;;1.40;1.00;;;20.80;99.90;;;;;;5260718;28;20023;-77
2022/06/06 07:32:56;;;;;;;1.55;1.05;;;21.10;99.90;;;;;;5245058;28;20033;-75
2022/06/06 07:36:13;;;;;;;0.80;0.80;;;21.10;99.90;;;;;;5231938;28;20040;-75
2022/06/06 07:39:06;;;;;;;1.10;1.00;;;20.80;99.90;;;;;;5210293;28;20035;-76
2022/06/06 07:42:03;;;;;;;0.90;0.90;;;21.10;99.90;;;;;;5248212;28;20027;-76
2022/06/06 07:44:43;;;;;;;1.40;1.30;;;20.80;99.90;;;;;;5230294;28;20047;-78
2022/06/06 07:47:32;;;;;;;2.35;0.95;;;20.80;99.90;;;;;;5251868;28;20021;-75
2022/06/06 07:50:19;;;;;;;1.02;1.00;;;20.90;99.90;;;;;;5234219;28;20029;-76
2022/06/06 07:53:08;;;;;;;0.90;0.90;;;21.10;99.90;;;;;;5243275;28;20027;-77
2022/06/06 07:55:48;;;;;;;2.78;1.45;;;21.10;99.90;;;;;;5251496;28;20024;-77
2022/06/06 07:58:35;;;;;;;1.67;1.02;;;21.00;99.90;;;;;;5252367;28;20112;-75
2022/06/06 08:01:16;;;;;;;1.40;0.80;;;21.40;99.90;;;;;;5233200;28;20285;-80
2022/06/06 08:04:03;;;;;;;1.63;1.08;;;21.70;99.90;;;;;;5217841;28;20025;-77
2022/06/06 08:07:06;;;;;;;1.15;1.05;;;21.50;99.90;;;;;;5220548;28;20051;-79
2022/06/06 08:09:52;;;;;;;2.97;1.15;;;21.80;99.90;;;;;;5227946;28;20043;-79
2022/06/06 08:12:51;;;;;;;1.42;1.33;;;21.90;99.90;;;;;;5212960;28;20033;-75
2022/06/06 08:15:29;;;;;;;1.20;1.10;;;22.00;99.90;;;;;;5231376;28;20128;-78
2022/06/06 08:18:09;;;;;;;1.30;0.93;;;22.10;99.90;;;;;;5231741;28;20039;-79
2022/06/06 08:21:04;;;;;;;1.10;0.98;;;22.30;99.90;;;;;;5231026;28;20028;-78
2022/06/06 08:23:37;;;;;;;0.93;0.90;;;22.70;99.90;;;;;;5233529;28;20027;-77
2022/06/06 08:26:10;;;;;;;0.98;0.90;;;23.00;99.90;;;;;;5251319;28;20043;-76
2022/06/06 08:28:48;;;;;;;0.70;0.70;;;22.90;99.90;;;;;;5251403;28;20554;-79
2022/06/06 08:31:20;;;;;;;0.95;0.80;;;22.80;99.90;;;;;;5250492;28;20036;-78
2022/06/06 08:33:53;;;;;;;1.60;0.90;;;22.90;99.90;;;;;;5242362;28;20021;-77
2022/06/06 08:36:25;;;;;;;0.90;0.90;;;23.50;99.90;;;;;;5242334;28;20050;-81
2022/06/06 08:39:13;;;;;;;0.73;0.73;;;23.70;99.90;;;;;;5267818;28;20094;-79
2022/06/06 08:41:57;;;;;;;0.80;0.80;;;23.80;99.90;;;;;;5271760;28;20036;-78
2022/06/06 08:44:46;;;;;;;1.65;1.38;;;24.00;99.90;;;;;;5269055;28;20037;-76
2022/06/06 08:47:34;;;;;;;0.85;0.85;;;24.10;99.90;;;;;;5251465;28;20209;-77
2022/06/06 08:50:46;;;;;;;0.82;0.82;;;24.00;99.90;;;;;;5237952;28;20031;-78
2022/06/06 08:53:55;;;;;;;1.08;0.80;;;23.60;99.90;;;;;;5216621;28;20025;-79
2022/06/06 08:56:48;;;;;;;0.70;0.70;;;23.90;99.90;;;;;;5232843;28;20023;-78
2022/06/06 08:59:40;;;;;;;0.90;0.90;;;24.20;99.90;;;;;;5228691;28;20031;-77
2022/06/06 09:02:56;;;;;;;0.90;0.90;;;24.50;99.90;;;;;;5228826;28;20025;-78
2022/06/06 09:06:08;;;;;;;1.40;0.90;;;24.70;99.90;;;;;;5221826;28;20060;-77
2022/06/06 09:09:14;;;;;;;0.82;0.80;;;24.30;99.90;;;;;;5228315;28;20029;-79
2022/06/06 09:12:23;;;;;;;1.08;0.82;;;24.70;99.90;;;;;;5230321;28;20025;-79
2022/06/06 09:15:12;;;;;;;0.90;0.90;;;24.50;99.90;;;;;;5246846;28;20040;-80
2022/06/06 09:18:11;;;;;;;0.80;0.80;;;24.70;99.90;;;;;;5253688;28;20032;-78
2022/06/06 09:21:01;;;;;;;1.08;0.90;;;25.70;99.90;;;;;;5236167;28;20024;-80
2022/06/06 09:24:08;;;;;;;0.90;0.90;;;25.80;99.90;;;;;;5246903;28;20020;-81
2022/06/06 09:27:07;;;;;;;1.85;0.70;;;25.50;99.90;;;;;;5229669;28;20017;-80
2022/06/06 09:29:50;;;;;;;0.98;0.90;;;25.70;99.90;;;;;;5230299;28;20058;-80
2022/06/06 09:32:40;;;;;;;1.85;0.85;;;25.90;99.90;;;;;;5230150;28;20230;-79
2022/06/06 09:35:32;;;;;;;1.58;1.00;;;26.00;99.90;;;;;;5174636;28;1573715;-78
2022/06/06 09:38:36;;;;;;;1.35;0.90;;;25.50;99.90;;;;;;5213457;28;20047;-81
2022/06/06 09:41:36;;;;;;;0.88;0.80;;;25.50;99.90;;;;;;5149741;28;20045;-81
2022/06/06 09:44:47;;;;;;;0.85;0.85;;;25.60;99.90;;;;;;5167306;28;20216;-77
2022/06/06 09:47:39;;;;;;;1.17;1.08;;;25.90;99.90;;;;;;5150074;28;20038;-79
2022/06/06 09:50:33;;;;;;;0.93;0.90;;;26.00;99.90;;;;;;5182473;28;20034;-79
2022/06/06 09:53:27;;;;;;;1.07;0.90;;;26.30;99.90;;;;;;5185809;28;20058;-79
2022/06/06 09:59:46;;;;;;;1.30;0.80;;;26.60;99.90;;;;;;5187033;28;20125;-82
2022/06/06 10:02:53;;;;;;;0.98;0.95;;;26.10;99.90;;;;;;5169381;28;20043;-79
2022/06/06 10:05:59;;;;;;;2.35;1.08;;;26.70;99.90;;;;;;5173882;28;20048;-79
2022/06/06 10:08:51;;;;;;;0.90;0.90;;;26.70;99.90;;;;;;5174004;28;20036;-81
2022/06/06 10:11:47;;;;;;;0.95;0.95;;;26.60;99.90;;;;;;5183631;28;20050;-81
2022/06/06 10:14:42;;;;;;;0.98;0.95;;;27.40;99.90;;;;;;5164565;28;20029;-79
2022/06/06 10:17:33;;;;;;;1.30;1.20;;;27.00;99.90;;;;;;5211338;28;20033;-81
2022/06/06 10:20:39;;;;;;;1.38;0.90;;;26.20;99.90;;;;;;5237102;28;20029;-79
2022/06/06 10:23:20;;;;;;;2.13;1.35;;;26.90;99.90;;;;;;5228111;28;20045;-78
2022/06/06 10:26:09;;;;;;;1.00;1.00;;;27.40;99.90;;;;;;5231407;28;20536;-79
2022/06/06 10:29:17;;;;;;;6.10;1.48;;;27.80;99.90;;;;;;5233165;28;20041;-82
2022/06/06 10:32:21;;;;;;;1.23;1.05;;;26.70;99.90;;;;;;5265764;28;20017;-81
2022/06/06 10:35:08;;;;;;;1.25;1.15;;;26.70;99.90;;;;;;5233349;28;20031;-78
2022/06/06 10:38:03;;;;;;;1.00;1.00;;;25.50;99.90;;;;;;5212808;28;20017;-79
2022/06/06 10:41:09;;;;;;;0.90;0.90;;;25.50;99.90;;;;;;5216849;28;20054;-80
2022/06/06 10:44:06;;;;;;;1.02;1.00;;;26.90;99.90;;;;;;5219008;28;20031;-81
2022/06/06 10:46:45;;;;;;;2.58;1.08;;;27.70;99.90;;;;;;5239967;28;20029;-78
2022/06/06 10:49:31;;;;;;;0.95;0.95;;;28.60;99.90;;;;;;5243268;28;20023;-80
2022/06/06 10:52:26;;;;;;;1.30;0.85;;;29.10;99.90;;;;;;5234115;28;20027;-81
2022/06/06 10:55:15;;;;;;;1.35;0.85;;;28.50;99.90;;;;;;5251201;28;20029;-80
2022/06/06 10:58:07;;;;;;;0.88;0.88;;;28.80;99.90;;;;;;5242595;28;20379;-79
2022/06/06 11:01:14;;;;;;;0.90;0.90;;;29.30;99.90;;;;;;5230080;28;20028;-79
2022/06/06 11:04:22;;;;;;;0.88;0.82;;;31.70;99.90;;;;;;5230585;28;20021;-82
2022/06/06 11:07:27;;;;;;;1.00;1.00;;;31.60;99.90;;;;;;5169678;28;20052;-81
2022/06/06 11:10:07;;;;;;;1.00;0.90;;;28.90;99.90;;;;;;5212863;28;20043;-78
2022/06/06 11:12:57;;;;;;;1.65;1.23;;;29.00;99.90;;;;;;5239910;28;20043;-80
2022/06/06 11:16:00;;;;;;;1.33;1.23;;;30.30;99.90;;;;;;5216219;28;20035;-82
2022/06/06 11:18:49;;;;;;;0.98;0.98;;;30.30;99.90;;;;;;5244185;28;20020;-81
2022/06/06 11:21:39;;;;;;;1.70;1.10;;;30.10;99.90;;;;;;5234391;28;20310;-80
2022/06/06 11:24:19;;;;;;;1.00;1.00;;;29.50;99.90;;;;;;5229723;28;20343;-79
2022/06/06 11:26:52;;;;;;;1.52;1.10;;;29.90;99.90;;;;;;5230225;28;20371;-81
2022/06/06 11:29:32;;;;;;;1.17;1.08;;;31.00;99.90;;;;;;5239599;28;20017;-80
2022/06/06 11:32:06;;;;;;;1.33;1.00;;;30.60;99.90;;;;;;5250890;28;20411;-82
2022/06/06 11:34:40;;;;;;;;;;;30.30;99.90;;;;;;5251274;28;20021;-81
2022/06/06 11:37:41;;;;;;;0.70;0.70;;;30.30;99.90;;;;;;5232780;28;20700;-81
2022/06/06 11:40:35;;;;;;;1.23;1.05;;;30.30;99.90;;;;;;5215951;28;20032;-81
2022/06/06 11:43:35;;;;;;;1.65;1.55;;;30.30;99.90;;;;;;5232197;28;20025;-80
2022/06/06 11:46:21;;;;;;;1.30;1.15;;;33.40;99.90;;;;;;5230668;28;20029;-80
2022/06/06 11:49:01;;;;;;;0.90;0.90;;;34.10;99.90;;;;;;5242834;28;20024;-82
2022/06/06 11:51:56;;;;;;;2.75;1.48;;;32.60;99.90;;;;;;5215580;28;20028;-82
2022/06/06 11:54:39;;;;;;;0.98;0.98;;;32.40;99.90;;;;;;5249927;28;20031;-80
2022/06/06 11:57:48;;;;;;;1.00;1.00;;;32.30;99.90;;;;;;5249994;28;20024;-80
2022/06/06 12:00:31;;;;;;;0.88;0.88;;;32.40;99.90;;;;;;5230709;28;20103;-80
2022/06/06 12:03:51;;;;;;;1.00;1.00;;;33.10;99.90;;;;;;5232833;28;20028;-82
2022/06/06 12:06:58;;;;;;;1.20;1.10;;;34.40;99.90;;;;;;5220347;28;20060;-81
2022/06/06 12:10:02;;;;;;;1.13;1.00;;;33.00;99.90;;;;;;5253119;28;20016;-81
2022/06/06 12:12:46;;;;;;;1.23;1.05;;;32.80;99.90;;;;;;5250991;28;20020;-81
2022/06/06 12:15:36;;;;;;;1.33;1.23;;;32.90;99.90;;;;;;5232425;28;20040;-80
2022/06/06 12:18:20;;;;;;;1.33;1.23;;;32.90;99.90;;;;;;5232332;28;20241;-81
2022/06/06 12:21:05;;;;;;;1.15;1.08;;;32.50;99.90;;;;;;5250318;28;20027;-81
2022/06/06 12:24:23;;;;;;;1.20;1.10;;;31.90;99.90;;;;;;5242131;28;20032;-83
2022/06/06 12:27:08;;;;;;;4.13;1.40;;;35.00;99.90;;;;;;5254891;28;20039;-80
2022/06/06 12:29:51;;;;;;;1.00;1.00;;;35.00;99.90;;;;;;5213880;28;20232;-79
2022/06/06 12:32:49;;;;;;;1.77;1.35;;;33.50;99.90;;;;;;5233695;28;20032;-82
2022/06/06 12:35:24;;;;;;;1.10;1.00;;;34.20;99.90;;;;;;5234874;28;20303;-81
2022/06/06 12:38:26;;;;;;;3.20;1.02;;;34.50;99.90;;;;;;5253671;28;20456;-80
2022/06/06 12:41:22;;;;;;;1.95;1.10;;;34.90;99.90;;;;;;5248933;28;20043;-80
2022/06/06 12:44:19;;;;;;;1.40;1.00;;;32.90;99.90;;;;;;5245473;28;20030;-82
2022/06/06 12:47:09;;;;;;;1.50;1.10;;;32.90;99.90;;;;;;5198235;28;20040;-82
2022/06/06 12:50:25;;;;;;;1.27;1.05;;;34.70;99.90;;;;;;5236004;28;20036;-81
2022/06/06 12:53:11;;;;;;;1.20;1.10;;;35.30;99.90;;;;;;5223751;28;20034;-82
2022/06/06 12:58:45;;;;;;;1.30;1.10;;;34.00;99.90;;;;;;5253379;28;20028;-82
2022/06/06 13:01:49;;;;;;;1.60;1.50;;;31.90;99.90;;;;;;5235414;28;20042;-80
2022/06/06 13:04:39;;;;;;;1.30;1.20;;;31.00;99.90;;;;;;5242920;28;20024;-82
2022/06/06 13:07:36;;;;;;;0.80;0.80;;;31.10;99.90;;;;;;5241067;28;20039;-82
2022/06/06 13:10:25;;;;;;;0.80;0.80;;;32.80;99.90;;;;;;5236678;28;20024;-83
2022/06/06 13:13:05;;;;;;;1.00;0.98;;;32.30;99.90;;;;;;5252117;28;20042;-82
2022/06/06 13:16:05;;;;;;;1.10;1.00;;;33.70;99.90;;;;;;5244615;28;20031;-81
2022/06/06 13:18:58;;;;;;;1.00;1.00;;;34.40;99.90;;;;;;5253268;28;20030;-84
2022/06/06 13:21:46;;;;;;;0.90;0.90;;;33.10;99.90;;;;;;5252049;28;20016;-85
2022/06/06 13:24:26;;;;;;;1.50;1.05;;;33.40;99.90;;;;;;5253126;28;20070;-84
2022/06/06 13:27:27;;;;;;;1.20;1.10;;;33.20;99.90;;;;;;5250046;28;20029;-84
2022/06/06 13:30:25;;;;;;;1.40;1.27;;;33.10;99.90;;;;;;5257240;28;20078;-84
2022/06/06 13:33:13;;;;;;;1.15;1.05;;;32.80;99.90;;;;;;5247196;28;20043;-83
2022/06/06 13:36:09;;;;;;;1.20;1.05;;;31.20;99.90;;;;;;5213787;28;20053;-84
2022/06/06 13:38:44;;;;;;;1.05;0.98;;;31.20;99.90;;;;;;5257474;28;20042;-82
2022/06/06 13:41:26;;;;;;;2.25;1.38;;;31.60;99.90;;;;;;5256464;28;20050;-81
2022/06/06 13:44:08;;;;;;;1.17;1.10;;;31.40;99.90;;;;;;5264547;28;20038;-82
2022/06/06 13:47:13;;;;;;;1.33;1.23;;;32.40;99.90;;;;;;5231728;28;20044;-85
2022/06/06 13:50:22;;;;;;;1.85;1.00;;;33.30;99.90;;;;;;5243678;28;20602;-83
2022/06/06 13:53:19;;;;;;;1.50;1.30;;;33.70;99.90;;;;;;5239067;28;20522;-83
2022/06/06 13:56:29;;;;;;;1.10;0.93;;;33.00;99.90;;;;;;5234916;28;20033;-82
2022/06/06 13:59:29;;;;;;;1.20;1.10;;;33.30;99.90;;;;;;5212174;28;20033;-81
2022/06/06 14:02:21;;;;;;;2.25;1.20;;;33.40;99.90;;;;;;5237233;28;20608;-84
2022/06/06 14:04:58;;;;;;;1.10;1.10;;;36.10;99.90;;;;;;5220023;28;20037;-83
2022/06/06 14:07:44;;;;;;;1.13;1.13;;;36.10;99.90;;;;;;5224981;28;20399;-81
2022/06/06 14:10:19;;;;;;;1.40;1.17;;;34.40;99.90;;;;;;5239606;28;20020;-84
2022/06/06 14:13:02;;;;;;;1.90;1.27;;;34.30;99.90;;;;;;5235433;28;20306;-82
2022/06/06 14:15:46;;;;;;;2.08;1.55;;;32.70;99.90;;;;;;5269797;28;20016;-80
2022/06/06 14:18:31;;;;;;;2.92;1.25;;;32.30;99.90;;;;;;5263641;28;20032;-81
2022/06/06 14:21:03;;;;;;;1.73;1.52;;;33.00;99.90;;;;;;5248708;28;20023;-84
2022/06/06 14:23:40;;;;;;;1.33;1.23;;;34.80;99.90;;;;;;5254908;28;20046;-83
2022/06/06 14:26:14;;;;;;;1.00;1.00;;;35.00;99.90;;;;;;5250418;28;20035;-78
2022/06/06 14:29:05;;;;;;;1.08;0.93;;;34.70;99.90;;;;;;5249883;28;20031;-79
2022/06/06 14:31:49;;;;;;;1.17;1.02;;;34.60;99.90;;;;;;5246743;28;20031;-81
2022/06/06 14:34:45;;;;;;;1.38;1.27;;;35.30;99.90;;;;;;5215365;28;20032;-80
2022/06/06 14:37:19;;;;;;;1.30;1.20;;;35.70;99.90;;;;;;5230103;28;20032;-82
2022/06/06 14:40:00;;;;;;;1.30;1.00;;;33.90;99.90;;;;;;5210939;28;20021;-80
2022/06/06 14:42:37;;;;;;;1.58;1.20;;;33.70;99.90;;;;;;5225996;28;20099;-82
2022/06/06 14:45:26;;;;;;;0.90;0.90;;;33.00;99.90;;;;;;5229164;28;20043;-78
2022/06/06 14:48:08;;;;;;;1.00;1.00;;;32.50;99.90;;;;;;5195618;28;20476;-81
2022/06/06 14:50:59;;;;;;;0.95;0.95;;;32.80;99.90;;;;;;5209430;28;20023;-79
2022/06/06 14:53:56;;;;;;;1.45;1.33;;;33.90;99.90;;;;;;5202925;28;20058;-79
2022/06/06 14:56:44;;;;;;;1.00;1.00;;;35.40;99.90;;;;;;5208916;28;20021;-83